Time;durP1;ratioP1;P1;durP2;ratioP2;P2;SDS_P1;SDS_P2;PMS_P1;PMS_P2;Temp;Humidity;BMP_temperature;BMP_pressure;BME280_temperature;BME280_humidity;BME280_pressure;Samples;Min_cycle;Max_cycle;Signal;HPM_P1;HPM_P2
2023/01/12 00:01:37;;;;;;;22.80;16.95;;;8.50;99.90;;;;;;5049506;28;20095;-47
2023/01/12 00:04:04;;;;;;;25.73;17.33;;;8.50;99.90;;;;;;5053557;28;20056;-49
2023/01/12 00:06:33;;;;;;;22.88;16.80;;;8.40;99.90;;;;;;5036199;28;20075;-47
2023/01/12 00:09:02;;;;;;;20.73;15.68;;;8.30;99.90;;;;;;5052607;28;20056;-47
2023/01/12 00:11:28;;;;;;;22.52;15.60;;;8.40;99.90;;;;;;5052694;28;20044;-47
2023/01/12 00:13:54;;;;;;;23.67;17.35;;;8.30;99.90;;;;;;5052445;28;20079;-48
2023/01/12 00:16:36;;;;;;;35.95;24.35;;;8.30;99.90;;;;;;5052651;28;20436;-47
2023/01/12 00:19:12;;;;;;;35.97;24.73;;;7.90;99.90;;;;;;5052499;28;20107;-47
2023/01/12 00:24:33;;;;;;;38.55;26.00;;;7.50;99.90;;;;;;5051279;28;20020;-48
2023/01/12 00:27:00;;;;;;;65.15;43.63;;;7.70;99.90;;;;;;5052135;28;20060;-48
2023/01/12 00:29:27;;;;;;;46.60;28.25;;;7.70;99.90;;;;;;5051721;28;20032;-47
2023/01/12 00:31:54;;;;;;;36.60;24.27;;;7.50;99.90;;;;;;5051971;28;20037;-48
2023/01/12 00:34:20;;;;;;;32.03;21.77;;;7.30;99.90;;;;;;5034571;28;20040;-48
2023/01/12 00:36:46;;;;;;;29.45;18.95;;;7.20;99.90;;;;;;5049347;28;20037;-48
2023/01/12 00:39:13;;;;;;;29.92;20.13;;;7.00;99.90;;;;;;5035906;28;20036;-48
2023/01/12 00:47:10;;;;;;;26.50;17.67;;;7.10;99.90;;;;;;5045701;28;20044;-48
2023/01/12 00:49:37;;;;;;;22.77;16.30;;;7.50;99.90;;;;;;5035496;28;20037;-47
2023/01/12 00:52:05;;;;;;;24.88;18.02;;;7.60;99.90;;;;;;5034639;28;20037;-47
2023/01/12 00:54:31;;;;;;;35.30;24.02;;;7.80;99.90;;;;;;5044018;28;20049;-48
2023/01/12 00:56:57;;;;;;;33.72;24.52;;;7.90;99.90;;;;;;5047746;28;20025;-47
2023/01/12 00:59:23;;;;;;;30.65;22.38;;;8.00;99.90;;;;;;5050150;28;20051;-47
2023/01/12 01:01:49;;;;;;;33.42;23.23;;;8.10;99.90;;;;;;5053639;28;20028;-47
2023/01/12 01:04:15;;;;;;;33.28;24.50;;;8.20;99.90;;;;;;5044268;28;20461;-47
2023/01/12 01:06:40;;;;;;;32.10;22.83;;;8.30;99.90;;;;;;5052199;28;20557;-47
2023/01/12 01:09:06;;;;;;;30.95;22.50;;;8.20;99.90;;;;;;5050316;28;20029;-49
2023/01/12 01:11:33;;;;;;;32.17;23.17;;;8.30;99.90;;;;;;5030553;28;20037;-47
2023/01/12 01:13:59;;;;;;;32.83;22.45;;;8.30;99.90;;;;;;5047916;28;20037;-47
2023/01/12 01:16:25;;;;;;;35.10;23.85;;;8.30;99.90;;;;;;5043688;28;20036;-47
2023/01/12 01:18:51;;;;;;;40.28;27.05;;;8.20;99.90;;;;;;5051890;28;20045;-48
2023/01/12 01:21:17;;;;;;;35.60;26.02;;;8.00;99.90;;;;;;5049930;28;20021;-48
2023/01/12 01:23:44;;;;;;;31.20;22.42;;;7.80;99.90;;;;;;5053998;28;20478;-47
2023/01/12 01:26:15;;;;;;;26.08;18.98;;;7.60;99.90;;;;;;5046395;28;20432;-49
2023/01/12 01:28:42;;;;;;;29.73;21.30;;;7.50;99.90;;;;;;5032216;28;20041;-47
2023/01/12 01:31:13;;;;;;;25.55;18.08;;;7.40;99.90;;;;;;5047427;28;20476;-48
2023/01/12 01:33:39;;;;;;;28.60;18.67;;;7.30;99.90;;;;;;5050294;28;20047;-48
2023/01/12 01:36:05;;;;;;;26.27;18.02;;;7.30;99.90;;;;;;5053394;28;20445;-48
2023/01/12 01:38:31;;;;;;;28.80;19.85;;;7.50;99.90;;;;;;5044386;28;20124;-46
2023/01/12 01:40:57;;;;;;;24.52;19.20;;;7.60;99.90;;;;;;5044112;28;20108;-48
2023/01/12 01:43:25;;;;;;;25.88;17.90;;;7.70;99.90;;;;;;5051360;28;20481;-47
2023/01/12 01:46:12;;;;;;;28.02;19.13;;;7.60;99.90;;;;;;5043486;28;20040;-47
2023/01/12 01:48:39;;;;;;;24.75;16.65;;;7.60;99.90;;;;;;5045873;28;20025;-47
2023/01/12 01:51:14;;;;;;;22.80;16.67;;;7.40;99.90;;;;;;5047893;28;20021;-47
2023/01/12 01:53:43;;;;;;;25.33;18.00;;;7.10;99.90;;;;;;5045646;28;20112;-48
2023/01/12 01:56:17;;;;;;;27.58;18.65;;;7.20;99.90;;;;;;5050191;28;20392;-48
2023/01/12 01:58:50;;;;;;;28.52;17.45;;;7.30;99.90;;;;;;5051309;28;20907;-47
2023/01/12 02:01:16;;;;;;;24.20;17.42;;;7.50;99.90;;;;;;5046571;28;20400;-48
2023/01/12 02:03:43;;;;;;;22.05;16.98;;;7.60;99.90;;;;;;5030848;28;20030;-48
2023/01/12 02:06:09;;;;;;;23.65;16.63;;;7.80;99.90;;;;;;5047914;28;20044;-47
2023/01/12 02:08:56;;;;;;;22.17;16.30;;;7.80;99.90;;;;;;5046327;28;20021;-47
2023/01/12 02:17:12;;;;;;;27.70;18.00;;;7.20;99.90;;;;;;5043638;28;20040;-48
2023/01/12 02:19:40;;;;;;;26.33;17.85;;;7.30;99.90;;;;;;5048718;28;20024;-47
2023/01/12 02:22:12;;;;;;;25.42;17.77;;;7.40;99.90;;;;;;5051456;28;20027;-48
2023/01/12 02:25:29;;;;;;;26.88;17.73;;;7.20;99.90;;;;;;5049181;28;20470;-47
2023/01/12 02:28:35;;;;;;;25.80;18.02;;;6.90;99.90;;;;;;5028818;28;20135;-46
2023/01/12 02:31:06;;;;;;;27.02;18.30;;;6.90;99.90;;;;;;5030750;28;20087;-48
2023/01/12 02:33:35;;;;;;;28.53;18.60;;;6.90;99.90;;;;;;5030303;28;20036;-47
2023/01/12 02:36:24;;;;;;;24.27;17.00;;;6.80;99.90;;;;;;5030497;28;20033;-47
2023/01/12 02:39:00;;;;;;;21.58;14.80;;;6.70;99.90;;;;;;5031164;28;20040;-48
2023/01/12 02:45:00;;;;;;;25.42;16.15;;;6.50;99.90;;;;;;5028061;28;20088;-48
2023/01/12 02:48:07;;;;;;;19.55;13.18;;;6.70;99.90;;;;;;4971028;28;20498;-47
2023/01/12 02:51:10;;;;;;;18.95;14.35;;;6.60;99.90;;;;;;4895050;29;20041;-47
2023/01/12 02:53:43;;;;;;;;;;;6.70;99.90;;;;;;4894880;29;20036;-48
2023/01/12 02:56:12;;;;;;;20.15;13.70;;;6.80;99.90;;;;;;4894745;29;20033;-48
2023/01/12 02:58:44;;;;;;;19.17;12.82;;;6.80;99.90;;;;;;4894592;29;20210;-47
2023/01/12 03:01:13;;;;;;;17.98;10.68;;;6.60;99.90;;;;;;4894290;29;20075;-47
2023/01/12 03:03:40;;;;;;;18.20;12.40;;;6.40;99.90;;;;;;4888545;29;20123;-48
2023/01/12 03:06:07;;;;;;;16.52;11.95;;;6.60;99.90;;;;;;4897371;29;20464;-47
2023/01/12 03:08:36;;;;;;;16.95;12.50;;;6.80;99.90;;;;;;4913989;29;20477;-48
2023/01/12 03:11:05;;;;;;;21.52;12.80;;;;;;;;;;4913039;29;20158;-48
2023/01/12 03:13:36;;;;;;;20.38;13.25;;;7.30;99.90;;;;;;4912221;29;20527;-48
2023/01/12 03:16:04;;;;;;;17.50;12.50;;;7.40;99.90;;;;;;4913144;29;20382;-47
2023/01/12 03:18:56;;;;;;;16.73;12.65;;;7.20;99.90;;;;;;4913699;29;20039;-47
2023/01/12 03:21:27;;;;;;;17.30;13.00;;;7.40;99.90;;;;;;4941173;28;20105;-47
2023/01/12 03:24:01;;;;;;;19.13;13.55;;;7.40;99.90;;;;;;4970570;28;20041;-48
2023/01/12 03:26:29;;;;;;;18.48;13.38;;;7.30;99.90;;;;;;4980812;28;20397;-47
2023/01/12 03:29:06;;;;;;;14.93;11.98;;;7.60;99.90;;;;;;5022653;28;20397;-47
2023/01/12 03:31:32;;;;;;;17.08;12.75;;;7.50;99.90;;;;;;5031390;28;20033;-48
2023/01/12 03:33:59;;;;;;;17.95;12.85;;;7.50;99.90;;;;;;5025605;28;20052;-47
2023/01/12 03:36:43;;;;;;;16.27;12.15;;;7.40;99.90;;;;;;5030549;28;20040;-47
2023/01/12 03:39:09;;;;;;;18.67;12.73;;;7.50;99.90;;;;;;5033502;28;20037;-47
2023/01/12 03:41:56;;;;;;;17.88;12.57;;;7.40;99.90;;;;;;5033944;28;20442;-47
2023/01/12 03:44:58;;;;;;;16.40;11.88;;;7.20;99.90;;;;;;5026555;28;20033;-47
2023/01/12 03:47:28;;;;;;;18.05;11.02;;;7.00;99.90;;;;;;5052857;28;20072;-47
2023/01/12 03:50:06;;;;;;;16.35;11.65;;;6.80;99.90;;;;;;5053115;28;20060;-47
2023/01/12 03:52:34;;;;;;;19.08;11.68;;;6.50;99.90;;;;;;5016851;28;20388;-47
2023/01/12 03:55:02;;;;;;;18.98;13.40;;;6.30;99.90;;;;;;5052333;28;20088;-47
2023/01/12 03:57:28;;;;;;;17.88;12.50;;;6.30;99.90;;;;;;4985931;28;20086;-47
2023/01/12 03:59:56;;;;;;;18.67;13.18;;;6.40;99.90;;;;;;4987145;28;20129;-49
2023/01/12 04:02:22;;;;;;;18.27;11.48;;;6.30;99.90;;;;;;4993644;28;20121;-48
2023/01/12 04:04:47;;;;;;;19.85;12.98;;;6.30;99.90;;;;;;4993175;28;20490;-46
2023/01/12 04:07:13;;;;;;;16.25;11.73;;;6.30;99.90;;;;;;4959870;28;20109;-47
2023/01/12 04:09:39;;;;;;;20.65;12.95;;;6.60;99.90;;;;;;4989421;28;20167;-47
2023/01/12 04:12:10;;;;;;;22.77;14.20;;;6.90;99.90;;;;;;4991503;28;20505;-48
2023/01/12 04:14:41;;;;;;;19.75;12.40;;;7.10;99.90;;;;;;4960595;28;20096;-47
2023/01/12 04:17:12;;;;;;;18.73;12.60;;;7.30;99.90;;;;;;4974243;28;20031;-49
2023/01/12 04:19:38;;;;;;;25.25;13.07;;;7.40;99.90;;;;;;4987427;28;20035;-47
2023/01/12 04:24:48;;;;;;;20.85;13.80;;;7.60;99.90;;;;;;4984267;28;20085;-47
2023/01/12 04:27:15;;;;;;;18.98;13.48;;;7.60;99.90;;;;;;4984405;28;20130;-47
2023/01/12 04:29:41;;;;;;;22.30;13.35;;;7.60;99.90;;;;;;4975563;28;20637;-47
2023/01/12 04:32:07;;;;;;;22.80;14.00;;;7.70;99.90;;;;;;4976411;28;20050;-47
2023/01/12 04:34:33;;;;;;;18.90;12.93;;;7.60;99.90;;;;;;5001360;28;20061;-47
2023/01/12 04:37:00;;;;;;;22.80;14.77;;;7.60;99.90;;;;;;5011033;28;20051;-48
2023/01/12 04:39:26;;;;;;;21.10;15.13;;;7.60;99.90;;;;;;5030605;28;20036;-46
2023/01/12 04:41:52;;;;;;;22.25;14.75;;;7.70;99.90;;;;;;5029245;28;20029;-48
2023/01/12 04:44:18;;;;;;;27.42;16.10;;;7.70;99.90;;;;;;5031634;28;20222;-47
2023/01/12 04:46:44;;;;;;;24.55;15.18;;;7.70;99.90;;;;;;5047944;28;20396;-46
2023/01/12 04:49:09;;;;;;;26.17;16.02;;;7.80;99.90;;;;;;5032007;28;20029;-48
2023/01/12 04:51:36;;;;;;;30.70;17.73;;;;;;;;;;5029739;28;20437;-47
2023/01/12 04:54:01;;;;;;;42.08;28.63;;;7.80;99.90;;;;;;5034779;28;20049;-50
2023/01/12 04:56:27;;;;;;;45.10;28.00;;;7.60;99.90;;;;;;5049301;28;20029;-47
2023/01/12 04:58:58;;;;;;;46.72;27.15;;;7.40;99.90;;;;;;5004782;28;20057;-47
2023/01/12 05:01:24;;;;;;;58.67;32.63;;;7.50;99.90;;;;;;5045797;28;20116;-47
2023/01/12 05:03:59;;;;;;;66.65;39.35;;;7.50;99.90;;;;;;5054649;28;20021;-47
2023/01/12 05:06:26;;;;;;;70.93;42.22;;;7.60;99.90;;;;;;5051980;28;20120;-47
2023/01/12 05:11:37;;;;;;;70.07;39.63;;;7.70;99.90;;;;;;5052900;28;20044;-47
2023/01/12 05:14:03;;;;;;;59.22;38.97;;;7.80;99.90;;;;;;5046064;28;20511;-47
2023/01/12 05:16:29;;;;;;;70.35;47.22;;;7.80;99.90;;;;;;5051326;28;20064;-47
2023/01/12 05:18:54;;;;;;;45.72;31.60;;;7.80;99.90;;;;;;5045823;28;20033;-48
2023/01/12 05:21:21;;;;;;;41.40;28.60;;;7.90;99.90;;;;;;5019625;28;20124;-48
2023/01/12 05:23:48;;;;;;;56.63;37.47;;;8.00;99.90;;;;;;5047753;28;20047;-48
2023/01/12 05:26:14;;;;;;;81.38;51.17;;;7.90;99.90;;;;;;5028747;28;20037;-47
2023/01/12 05:28:40;;;;;;;89.30;60.08;;;8.00;99.90;;;;;;5052542;28;20028;-47
2023/01/12 05:31:11;;;;;;;88.65;60.38;;;8.00;99.90;;;;;;5053253;28;20024;-47
2023/01/12 05:33:39;;;;;;;94.33;64.10;;;8.10;99.90;;;;;;5061983;28;20041;-48
2023/01/12 05:36:07;;;;;;;97.28;57.38;;;7.80;99.90;;;;;;5052916;28;20286;-47
2023/01/12 05:38:33;;;;;;;79.03;47.60;;;7.80;99.90;;;;;;5018648;28;20052;-46
2023/01/12 05:41:00;;;;;;;73.32;45.95;;;7.90;99.90;;;;;;5046358;28;20033;-47
2023/01/12 05:46:11;;;;;;;69.25;44.63;;;8.00;99.90;;;;;;5052808;28;20090;-46
2023/01/12 05:48:37;;;;;;;69.93;45.15;;;8.10;99.90;;;;;;5046572;28;20458;-47
2023/01/12 05:51:04;;;;;;;73.05;45.60;;;8.20;99.90;;;;;;5049421;28;20029;-47
2023/01/12 05:53:30;;;;;;;65.88;42.92;;;8.30;99.90;;;;;;5049310;28;20036;-47
2023/01/12 05:55:56;;;;;;;63.85;42.08;;;8.40;99.90;;;;;;5028552;28;20049;-48
2023/01/12 05:58:22;;;;;;;48.65;32.78;;;8.30;99.90;;;;;;5044257;28;20481;-48
2023/01/12 06:00:48;;;;;;;44.83;32.75;;;8.20;99.90;;;;;;5050128;28;20028;-47
2023/01/12 06:03:14;;;;;;;40.58;29.83;;;8.10;99.90;;;;;;5050461;28;20388;-48
2023/01/12 06:05:40;;;;;;;34.00;21.75;;;8.00;99.90;;;;;;5051770;28;20104;-47
2023/01/12 06:08:06;;;;;;;27.17;18.85;;;7.90;99.90;;;;;;5051063;28;20051;-47
2023/01/12 06:10:33;;;;;;;23.88;18.27;;;7.90;99.90;;;;;;5052225;28;20029;-47
2023/01/12 06:15:44;;;;;;;27.50;19.23;;;7.70;99.90;;;;;;5044869;28;20557;-47
2023/01/12 06:18:10;;;;;;;25.67;17.80;;;7.60;99.90;;;;;;5052306;28;20119;-47
2023/01/12 06:20:35;;;;;;;30.50;20.05;;;7.70;99.90;;;;;;5050649;28;20025;-46
2023/01/12 06:23:03;;;;;;;29.30;21.27;;;7.80;99.90;;;;;;5050386;28;20032;-46
2023/01/12 06:25:30;;;;;;;35.42;19.90;;;7.80;99.90;;;;;;5049622;28;20409;-46
2023/01/12 06:27:56;;;;;;;27.55;19.95;;;7.80;99.90;;;;;;5050847;28;20119;-47
2023/01/12 06:30:21;;;;;;;31.50;22.02;;;7.80;99.90;;;;;;5048016;28;20484;-48
2023/01/12 06:32:47;;;;;;;28.92;20.05;;;7.80;99.90;;;;;;5050054;28;20024;-47
2023/01/12 06:35:13;;;;;;;40.15;29.15;;;7.60;99.90;;;;;;5051697;28;20063;-48
2023/01/12 06:37:38;;;;;;;36.03;29.50;;;7.40;99.90;;;;;;5048778;28;20516;-49
2023/01/12 06:40:05;;;;;;;42.58;27.98;;;7.50;99.90;;;;;;5030534;28;20076;-49
2023/01/12 06:42:32;;;;;;;42.97;29.77;;;7.50;99.90;;;;;;5050727;28;20067;-48
2023/01/12 06:44:59;;;;;;;44.88;32.80;;;;;;;;;;5050174;28;20124;-48
2023/01/12 06:47:26;;;;;;;51.67;35.63;;;;;;;;;;5045320;28;20527;-49
2023/01/12 06:49:52;;;;;;;53.83;36.47;;;7.10;99.90;;;;;;5049580;28;20234;-48
2023/01/12 06:52:20;;;;;;;60.97;41.47;;;7.30;99.90;;;;;;5051148;28;20032;-48
2023/01/12 06:54:46;;;;;;;55.03;37.40;;;7.40;99.90;;;;;;5040848;28;20064;-48
2023/01/12 06:57:13;;;;;;;56.97;38.33;;;7.40;99.90;;;;;;5046916;28;20469;-48
2023/01/12 06:59:40;;;;;;;57.15;40.88;;;7.40;99.90;;;;;;5015396;28;20051;-47
2023/01/12 07:02:13;;;;;;;54.38;38.15;;;7.50;99.90;;;;;;5019011;28;20041;-48
2023/01/12 07:04:40;;;;;;;54.28;39.40;;;7.60;99.90;;;;;;5054109;28;20029;-48
2023/01/12 07:07:07;;;;;;;45.60;34.03;;;;;;;;;;5050767;28;20029;-51
2023/01/12 07:09:33;;;;;;;49.92;37.20;;;7.80;99.90;;;;;;5042185;28;20100;-49
2023/01/12 07:11:58;;;;;;;47.38;34.70;;;7.80;99.90;;;;;;5048678;28;20040;-47
2023/01/12 07:14:24;;;;;;;48.65;33.47;;;7.80;99.90;;;;;;5048007;28;20044;-48
2023/01/12 07:16:50;;;;;;;44.22;33.33;;;7.90;99.90;;;;;;5048519;28;20461;-48
2023/01/12 07:19:16;;;;;;;43.15;31.58;;;7.90;99.90;;;;;;5042964;28;20108;-48
2023/01/12 07:21:43;;;;;;;41.25;31.63;;;7.90;99.90;;;;;;5047837;28;20179;-51
2023/01/12 07:24:09;;;;;;;42.97;32.08;;;7.90;99.90;;;;;;5048575;28;20083;-49
2023/01/12 07:26:35;;;;;;;38.47;28.88;;;8.00;99.90;;;;;;5051392;28;20528;-49
2023/01/12 07:29:01;;;;;;;37.97;29.52;;;8.00;99.90;;;;;;5049762;28;20548;-49
2023/01/12 07:31:27;;;;;;;42.35;30.92;;;8.10;99.90;;;;;;5046361;28;20028;-50
2023/01/12 07:33:53;;;;;;;40.90;30.10;;;8.20;99.90;;;;;;5050237;28;20056;-50
2023/01/12 07:36:20;;;;;;;39.78;29.83;;;8.20;99.90;;;;;;5050412;28;20033;-50
2023/01/12 07:38:46;;;;;;;39.97;30.60;;;8.20;99.90;;;;;;5043776;28;20037;-49
2023/01/12 07:43:56;;;;;;;39.85;27.77;;;8.30;99.90;;;;;;5046460;28;20040;-47
2023/01/12 07:46:22;;;;;;;43.92;30.92;;;8.30;99.90;;;;;;5041975;28;20041;-48
2023/01/12 07:48:48;;;;;;;47.35;34.15;;;8.40;99.90;;;;;;5031090;28;20520;-52
2023/01/12 07:51:13;;;;;;;39.88;30.80;;;8.40;99.90;;;;;;5046434;28;20025;-49
2023/01/12 07:53:39;;;;;;;35.45;26.63;;;8.50;99.90;;;;;;5047191;28;20036;-51
2023/01/12 07:56:05;;;;;;;37.20;27.17;;;8.40;99.90;;;;;;5045999;28;20508;-52
2023/01/12 07:58:31;;;;;;;36.53;26.75;;;8.50;99.90;;;;;;5049480;28;20029;-45
2023/01/12 08:01:00;;;;;;;40.75;28.60;;;8.50;99.90;;;;;;5045167;28;20055;-49
2023/01/12 08:03:26;;;;;;;40.55;29.10;;;8.60;99.90;;;;;;5048265;28;20547;-45
2023/01/12 08:05:54;;;;;;;39.38;29.60;;;8.70;99.90;;;;;;5048378;28;20065;-47
2023/01/12 08:08:20;;;;;;;38.55;29.10;;;8.70;99.90;;;;;;5050516;28;20036;-49
2023/01/12 08:10:48;;;;;;;37.40;26.75;;;8.60;99.90;;;;;;5048011;28;20037;-45
2023/01/12 08:13:15;;;;;;;109.75;50.30;;;8.50;99.90;;;;;;5046840;28;20040;-45
2023/01/12 08:15:44;;;;;;;102.45;48.50;;;8.40;99.90;;;;;;5046750;28;20091;-47
2023/01/12 08:18:18;;;;;;;44.47;30.77;;;8.20;99.90;;;;;;5049194;28;20052;-53
2023/01/12 08:20:44;;;;;;;45.90;28.65;;;8.40;99.90;;;;;;5048123;28;20497;-49
2023/01/12 08:23:20;;;;;;;39.60;29.05;;;8.50;99.90;;;;;;5043046;28;20393;-52
2023/01/12 08:25:53;;;;;;;39.35;29.13;;;8.60;99.90;;;;;;5051999;28;20035;-47
2023/01/12 08:28:25;;;;;;;88.55;49.13;;;8.70;99.90;;;;;;5048572;28;20577;-51
2023/01/12 08:30:51;;;;;;;50.80;35.40;;;8.40;99.90;;;;;;5051935;28;20029;-51
2023/01/12 08:33:17;;;;;;;65.97;41.38;;;7.90;99.90;;;;;;5046890;28;20036;-49
2023/01/12 08:35:45;;;;;;;102.25;55.58;;;7.70;99.90;;;;;;5054679;28;20036;-49
2023/01/12 08:38:11;;;;;;;68.78;40.55;;;7.80;99.90;;;;;;5053163;28;20358;-44
2023/01/12 08:46:07;;;;;;;37.00;27.20;;;;;;;;;;5053059;28;20083;-55
2023/01/12 08:48:36;;;;;;;45.58;29.77;;;;;;;;;;5052284;28;20100;-49
2023/01/12 08:51:03;;;;;;;36.58;26.65;;;;;;;;;;5053107;28;20033;-50
2023/01/12 08:53:29;;;;;;;35.83;27.77;;;;;;;;;;5053645;28;20021;-56
2023/01/12 08:55:55;;;;;;;37.80;27.27;;;8.70;99.90;;;;;;5053230;28;20032;-52
2023/01/12 08:58:21;;;;;;;43.33;25.35;;;8.70;99.90;;;;;;5061012;28;20094;-55
2023/01/12 09:00:47;;;;;;;35.05;26.95;;;8.70;99.90;;;;;;5053332;28;20477;-51
2023/01/12 09:03:13;;;;;;;34.33;26.02;;;8.70;99.90;;;;;;5045495;28;20041;-45
2023/01/12 09:05:39;;;;;;;34.28;24.63;;;8.90;99.90;;;;;;5049811;28;20128;-49
2023/01/12 09:08:04;;;;;;;31.45;24.23;;;9.00;99.90;;;;;;5050652;28;20025;-44
2023/01/12 09:10:31;;;;;;;33.42;24.92;;;;;;;;;;5050436;28;20063;-50
2023/01/12 09:12:57;;;;;;;32.72;24.30;;;;;;;;;;5036389;28;20149;-44
2023/01/12 09:15:23;;;;;;;36.35;25.75;;;;;;;;;;5050991;28;20547;-46
2023/01/12 09:17:52;;;;;;;34.72;24.88;;;;;;;;;;5048791;28;20120;-50
2023/01/12 09:20:18;;;;;;;47.08;32.75;;;;;;;;;;5052044;28;20053;-42
2023/01/12 09:22:44;;;;;;;43.05;30.17;;;9.30;99.90;;;;;;5050967;28;20307;-47
2023/01/12 09:25:10;;;;;;;34.85;25.30;;;9.30;99.90;;;;;;5051894;28;20025;-48
2023/01/12 09:27:37;;;;;;;55.08;38.92;;;;;;;;;;5051614;28;20485;-46
2023/01/12 09:30:04;;;;;;;32.25;24.30;;;9.60;99.90;;;;;;5045805;28;20033;-46
2023/01/12 09:32:29;;;;;;;33.38;24.23;;;9.70;99.90;;;;;;5014516;28;20177;-49
2023/01/12 09:34:58;;;;;;;33.03;24.20;;;9.60;99.90;;;;;;5043424;28;20065;-51
2023/01/12 09:37:24;;;;;;;30.73;23.48;;;9.60;99.90;;;;;;5042984;28;20098;-50
2023/01/12 09:39:50;;;;;;;34.00;24.23;;;9.60;99.90;;;;;;5042827;28;20029;-50
2023/01/12 09:48:00;;;;;;;35.30;24.63;;;;;;;;;;5018167;28;20052;-50
2023/01/12 09:50:27;;;;;;;33.42;23.58;;;10.00;99.90;;;;;;5060676;28;20041;-47
2023/01/12 09:53:02;;;;;;;45.75;30.75;;;10.00;99.90;;;;;;5052862;28;20040;-47
2023/01/12 09:56:01;;;;;;;30.50;22.83;;;10.00;99.90;;;;;;5051065;28;20392;-47
2023/01/12 09:59:06;;;;;;;37.33;23.48;;;10.00;99.90;;;;;;5051866;28;20074;-47
2023/01/12 10:01:35;;;;;;;65.90;36.47;;;9.90;99.90;;;;;;5047144;28;20025;-47
2023/01/12 10:04:01;;;;;;;32.40;25.02;;;10.10;99.90;;;;;;5049818;28;20056;-47
2023/01/12 10:06:27;;;;;;;31.48;24.70;;;10.10;99.90;;;;;;5001466;28;20064;-47
2023/01/12 10:08:59;;;;;;;34.30;23.48;;;10.30;99.90;;;;;;5053613;28;20037;-47
2023/01/12 10:11:43;;;;;;;30.35;23.08;;;10.40;99.90;;;;;;5053882;28;20032;-47
2023/01/12 10:14:25;;;;;;;31.40;22.23;;;10.40;99.90;;;;;;5053737;28;20055;-47
2023/01/12 10:17:18;;;;;;;33.25;24.77;;;10.40;99.90;;;;;;5051702;28;20036;-46
2023/01/12 10:20:13;;;;;;;32.90;24.00;;;10.30;99.90;;;;;;5053515;28;20041;-46
2023/01/12 10:22:54;;;;;;;36.60;23.67;;;10.10;99.90;;;;;;5053660;28;20051;-46
2023/01/12 10:25:41;;;;;;;34.15;26.23;;;10.20;99.90;;;;;;5069064;28;20033;-46
2023/01/12 10:28:14;;;;;;;25.83;20.98;;;10.40;99.90;;;;;;5053663;28;20032;-48
2023/01/12 10:30:41;;;;;;;26.02;20.75;;;10.50;99.90;;;;;;5053748;28;20106;-46
2023/01/12 10:33:10;;;;;;;26.58;19.13;;;10.60;99.90;;;;;;5053893;28;20032;-47
2023/01/12 10:35:53;;;;;;;25.52;19.98;;;10.70;99.90;;;;;;5053417;28;20043;-46
2023/01/12 10:38:33;;;;;;;27.65;21.02;;;10.90;99.90;;;;;;5053399;28;20041;-47
2023/01/12 10:41:11;;;;;;;27.88;20.55;;;11.00;99.90;;;;;;5053521;28;20037;-48
2023/01/12 10:43:38;;;;;;;20.27;14.82;;;;;;;;;;5053384;28;20052;-47
2023/01/12 10:46:22;;;;;;;20.33;14.95;;;11.00;99.90;;;;;;5052552;28;20107;-46
2023/01/12 10:48:50;;;;;;;18.90;13.38;;;11.00;99.90;;;;;;5053352;28;20051;-50
2023/01/12 10:51:46;;;;;;;26.02;17.92;;;11.00;99.90;;;;;;5053514;28;20039;-47
2023/01/12 10:54:17;;;;;;;22.45;16.88;;;;;;;;;;5053045;28;20088;-47
2023/01/12 10:56:54;;;;;;;26.55;19.25;;;;;;;;;;5053041;28;20033;-47
2023/01/12 10:59:23;;;;;;;17.08;14.20;;;;;;;;;;5053147;28;20058;-47
2023/01/12 11:02:05;;;;;;;19.58;14.85;;;11.20;99.90;;;;;;5067794;28;20562;-47
2023/01/12 11:04:38;;;;;;;19.70;15.77;;;11.20;99.90;;;;;;5053222;28;20107;-47
2023/01/12 11:07:24;;;;;;;19.73;14.95;;;10.70;99.90;;;;;;5053159;28;20036;-47
2023/01/12 11:09:51;;;;;;;19.98;14.75;;;10.70;99.90;;;;;;5053026;28;20382;-47
2023/01/12 11:12:39;;;;;;;22.88;15.85;;;10.80;99.90;;;;;;5052950;28;20025;-47
2023/01/12 11:15:11;;;;;;;19.13;15.77;;;11.00;99.90;;;;;;5051947;28;20051;-51
2023/01/12 11:17:55;;;;;;;25.65;18.08;;;;;;;;;;5050445;28;20362;-49
2023/01/12 11:20:30;;;;;;;31.92;24.88;;;11.20;99.90;;;;;;5050358;28;20124;-47
2023/01/12 11:23:00;;;;;;;25.63;17.42;;;11.20;99.90;;;;;;5050723;28;20043;-48
2023/01/12 11:25:40;;;;;;;22.77;14.25;;;11.30;99.90;;;;;;5049799;28;20029;-48
2023/01/12 11:28:19;;;;;;;18.17;14.65;;;11.10;99.90;;;;;;5052122;28;20029;-48
2023/01/12 11:30:57;;;;;;;21.98;14.88;;;11.10;99.90;;;;;;5047889;28;20500;-48
2023/01/12 11:33:43;;;;;;;21.88;15.35;;;10.80;99.90;;;;;;5049813;28;20037;-48
2023/01/12 11:36:35;;;;;;;19.85;15.38;;;10.60;99.90;;;;;;5057250;28;20053;-50
2023/01/12 11:39:05;;;;;;;23.65;15.98;;;10.80;99.90;;;;;;5049792;28;20025;-48
2023/01/12 11:43:47;;;;;;;20.83;16.00;;;10.90;99.90;;;;;;5047607;28;20163;-44
2023/01/12 11:44:32;;;;;;;25.77;18.33;;;;;;;;;;5050862;28;20052;-42
2023/01/12 11:47:06;;;;;;;26.80;16.40;;;;;;;;;;5050504;28;20021;-45
2023/01/12 11:49:50;;;;;;;20.15;15.68;;;11.30;99.90;;;;;;5052794;28;20040;-44
2023/01/12 11:52:16;;;;;;;26.20;17.95;;;11.40;99.90;;;;;;5015084;28;20048;-46
2023/01/12 11:54:42;;;;;;;22.70;15.25;;;11.60;99.90;;;;;;5051734;28;20230;-46
2023/01/12 11:57:18;;;;;;;24.15;17.08;;;11.80;99.90;;;;;;5052237;28;20461;-46
2023/01/12 12:00:07;;;;;;;27.08;17.77;;;11.90;99.90;;;;;;5054801;28;20633;-47
2023/01/12 12:02:36;;;;;;;21.88;16.60;;;12.10;99.90;;;;;;5032123;28;20041;-45
2023/01/12 12:05:08;;;;;;;31.45;26.08;;;12.20;99.90;;;;;;5027896;28;20042;-46
2023/01/12 12:08:11;;;;;;;20.80;17.35;;;12.30;99.90;;;;;;5026943;28;20045;-46
2023/01/12 12:10:40;;;;;;;21.83;15.98;;;12.20;99.90;;;;;;4955313;29;20535;-47
2023/01/12 12:13:27;;;;;;;22.17;16.23;;;12.30;99.90;;;;;;4927340;29;20047;-47
2023/01/12 12:16:16;;;;;;;22.52;17.00;;;12.20;99.90;;;;;;4955710;29;20144;-47
2023/01/12 12:18:57;;;;;;;22.67;17.38;;;12.30;99.90;;;;;;4941374;28;20039;-47
2023/01/12 12:21:28;;;;;;;27.10;20.05;;;11.90;99.90;;;;;;4949597;29;20384;-47
2023/01/12 12:24:15;;;;;;;22.80;18.10;;;12.00;99.90;;;;;;4955192;29;20495;-46
2023/01/12 12:26:46;;;;;;;25.42;18.40;;;11.80;99.90;;;;;;4939027;29;20047;-47
2023/01/12 12:29:21;;;;;;;28.38;19.25;;;11.80;99.90;;;;;;4936330;29;20035;-48
2023/01/12 12:31:55;;;;;;;26.13;19.05;;;11.70;99.90;;;;;;4936454;29;20032;-47
2023/01/12 12:34:45;;;;;;;26.25;19.17;;;11.80;99.90;;;;;;4920469;29;20044;-47
2023/01/12 12:37:32;;;;;;;30.75;21.55;;;11.70;99.90;;;;;;4936200;29;20035;-48
2023/01/12 12:40:15;;;;;;;26.23;18.80;;;11.60;99.90;;;;;;4960179;28;20487;-47
2023/01/12 12:46:29;;;;;;;33.08;18.45;;;11.10;99.90;;;;;;5000292;28;20087;-47
2023/01/12 12:48:58;;;;;;;27.98;20.38;;;11.00;99.90;;;;;;5035476;28;20037;-47
2023/01/12 12:51:25;;;;;;;26.63;19.05;;;11.00;99.90;;;;;;5035126;28;20408;-47
2023/01/12 12:53:53;;;;;;;24.02;17.83;;;10.80;99.90;;;;;;5033450;28;20049;-47
2023/01/12 12:56:23;;;;;;;27.55;19.10;;;10.80;99.90;;;;;;5035372;28;20072;-47
2023/01/12 12:58:53;;;;;;;36.08;20.60;;;10.80;99.90;;;;;;5035198;28;20179;-47
2023/01/12 13:01:18;;;;;;;30.15;21.67;;;10.70;99.90;;;;;;5035006;28;20508;-47
2023/01/12 13:03:47;;;;;;;30.50;22.15;;;10.70;99.90;;;;;;5035552;28;20041;-47
2023/01/12 13:06:18;;;;;;;27.48;22.10;;;10.80;99.90;;;;;;5035272;28;20110;-48
2023/01/12 13:08:46;;;;;;;27.20;20.85;;;10.70;99.90;;;;;;5033991;28;20039;-47
2023/01/12 13:11:12;;;;;;;19.63;13.43;;;10.80;99.90;;;;;;5035067;28;20044;-50
2023/01/12 13:13:55;;;;;;;22.35;18.17;;;10.50;99.90;;;;;;5032911;28;20053;-49
2023/01/12 13:16:21;;;;;;;24.40;16.88;;;10.40;99.90;;;;;;5053588;28;20116;-47
2023/01/12 13:18:50;;;;;;;24.90;18.23;;;10.40;99.90;;;;;;5054368;28;20116;-47
2023/01/12 13:21:49;;;;;;;27.85;18.25;;;10.50;99.90;;;;;;5055096;28;20095;-47
2023/01/12 13:24:23;;;;;;;19.55;14.43;;;10.50;99.90;;;;;;5054972;28;20021;-48
2023/01/12 13:26:52;;;;;;;20.80;13.95;;;10.40;99.90;;;;;;5054835;28;20082;-47
2023/01/12 13:29:36;;;;;;;18.42;12.68;;;10.40;99.90;;;;;;5054351;28;20044;-48
2023/01/12 13:32:30;;;;;;;20.65;13.70;;;10.50;99.90;;;;;;5054528;28;20510;-47
2023/01/12 13:34:55;;;;;;;24.75;16.08;;;10.40;99.90;;;;;;5054535;28;20029;-47
2023/01/12 13:37:42;;;;;;;21.77;14.80;;;10.30;99.90;;;;;;5054649;28;20037;-49
2023/01/12 13:40:15;;;;;;;21.90;15.00;;;10.30;99.90;;;;;;5052805;28;20050;-49
2023/01/12 13:45:28;;;;;;;21.77;15.27;;;10.50;99.90;;;;;;5052934;28;20028;-49
2023/01/12 13:47:55;;;;;;;19.02;13.05;;;10.60;99.90;;;;;;5052662;28;20491;-49
2023/01/12 13:50:24;;;;;;;20.58;14.82;;;10.50;99.90;;;;;;5049370;28;20069;-48